sensor_id;sensor_type;location;lat;lon;timestamp;pressure;altitude;pressure_sealevel;temperature;humidity
80629;BME280;69983;42.370;-71.210;2023-05-10T00:02:08;101437.57;;;19.56;30.53
80629;BME280;69983;42.370;-71.210;2023-05-10T00:04:34;101437.05;;;19.67;29.42
80629;BME280;69983;42.370;-71.210;2023-05-10T00:06:59;101439.78;;;20.12;29.64
80629;BME280;69983;42.370;-71.210;2023-05-10T00:09:25;101444.54;;;20.06;29.92
80629;BME280;69983;42.370;-71.210;2023-05-10T00:11:51;101452.13;;;19.76;29.72
80629;BME280;69983;42.370;-71.210;2023-05-10T00:14:16;101457.99;;;20.11;30.04
80629;BME280;69983;42.370;-71.210;2023-05-10T00:16:41;101462.17;;;19.82;28.78
80629;BME280;69983;42.370;-71.210;2023-05-10T00:19:07;101468.56;;;19.64;28.60
80629;BME280;69983;42.370;-71.210;2023-05-10T00:21:33;101469.53;;;19.29;29.97
80629;BME280;69983;42.370;-71.210;2023-05-10T00:23:58;101469.93;;;19.98;29.92
80629;BME280;69983;42.370;-71.210;2023-05-10T00:26:24;101474.35;;;20.42;29.77
80629;BME280;69983;42.370;-71.210;2023-05-10T00:28:49;101478.02;;;20.34;29.58
80629;BME280;69983;42.370;-71.210;2023-05-10T00:31:14;101491.32;;;20.45;29.72
80629;BME280;69983;42.370;-71.210;2023-05-10T00:33:39;101499.18;;;20.67;29.59
80629;BME280;69983;42.370;-71.210;2023-05-10T00:36:05;101504.86;;;20.34;29.63
80629;BME280;69983;42.370;-71.210;2023-05-10T00:38:30;101513.07;;;20.49;28.75
80629;BME280;69983;42.370;-71.210;2023-05-10T00:40:55;101517.24;;;20.32;28.90
80629;BME280;69983;42.370;-71.210;2023-05-10T00:43:21;101524.42;;;20.64;29.13
80629;BME280;69983;42.370;-71.210;2023-05-10T00:45:46;101531.56;;;21.10;28.35
80629;BME280;69983;42.370;-71.210;2023-05-10T00:48:11;101530.71;;;21.71;27.99
80629;BME280;69983;42.370;-71.210;2023-05-10T00:50:37;101530.68;;;22.17;27.83
80629;BME280;69983;42.370;-71.210;2023-05-10T00:53:03;101534.54;;;21.98;27.75
80629;BME280;69983;42.370;-71.210;2023-05-10T00:55:27;101540.19;;;22.31;27.71
80629;BME280;69983;42.370;-71.210;2023-05-10T00:57:52;101546.24;;;21.95;27.73
80629;BME280;69983;42.370;-71.210;2023-05-10T01:00:18;101552.56;;;21.72;27.70
80629;BME280;69983;42.370;-71.210;2023-05-10T01:02:43;101559.50;;;21.76;28.00
80629;BME280;69983;42.370;-71.210;2023-05-10T01:05:08;101565.59;;;21.89;27.89
80629;BME280;69983;42.370;-71.210;2023-05-10T01:07:33;101564.19;;;22.18;27.85
80629;BME280;69983;42.370;-71.210;2023-05-10T01:09:59;101566.10;;;22.40;27.79
80629;BME280;69983;42.370;-71.210;2023-05-10T01:12:24;101571.38;;;22.80;27.58
80629;BME280;69983;42.370;-71.210;2023-05-10T01:14:49;101573.73;;;22.68;27.81
80629;BME280;69983;42.370;-71.210;2023-05-10T01:17:15;101578.70;;;22.76;27.62
80629;BME280;69983;42.370;-71.210;2023-05-10T01:19:41;101586.71;;;22.99;27.45
80629;BME280;69983;42.370;-71.210;2023-05-10T01:22:15;101592.93;;;22.93;27.56
80629;BME280;69983;42.370;-71.210;2023-05-10T01:24:40;101594.51;;;21.65;27.40
80629;BME280;69983;42.370;-71.210;2023-05-10T01:29:38;101592.84;;;21.26;26.16
80629;BME280;69983;42.370;-71.210;2023-05-10T01:32:01;101595.08;;;22.12;25.82
80629;BME280;69983;42.370;-71.210;2023-05-10T01:34:17;101597.64;;;23.63;25.80
80629;BME280;69983;42.370;-71.210;2023-05-10T01:36:45;101602.05;;;23.48;26.25
80629;BME280;69983;42.370;-71.210;2023-05-10T01:39:11;101599.66;;;23.55;26.75
80629;BME280;69983;42.370;-71.210;2023-05-10T01:41:40;101601.08;;;23.64;26.85
80629;BME280;69983;42.370;-71.210;2023-05-10T01:44:00;101603.06;;;23.56;27.00
80629;BME280;69983;42.370;-71.210;2023-05-10T01:46:28;101606.85;;;23.76;26.92
80629;BME280;69983;42.370;-71.210;2023-05-10T01:48:51;101604.66;;;23.56;27.20
80629;BME280;69983;42.370;-71.210;2023-05-10T01:51:13;101606.46;;;23.55;27.28
80629;BME280;69983;42.370;-71.210;2023-05-10T01:53:39;101611.43;;;23.79;27.21
80629;BME280;69983;42.370;-71.210;2023-05-10T01:56:04;101614.20;;;23.75;27.29
80629;BME280;69983;42.370;-71.210;2023-05-10T01:58:31;101621.04;;;23.89;27.23
80629;BME280;69983;42.370;-71.210;2023-05-10T02:00:55;101623.22;;;24.03;27.12
80629;BME280;69983;42.370;-71.210;2023-05-10T02:03:23;101628.10;;;23.84;27.24
80629;BME280;69983;42.370;-71.210;2023-05-10T02:05:46;101628.86;;;23.81;26.94
80629;BME280;69983;42.370;-71.210;2023-05-10T02:08:11;101630.73;;;23.44;26.92
80629;BME280;69983;42.370;-71.210;2023-05-10T02:10:38;101632.97;;;22.76;27.11
80629;BME280;69983;42.370;-71.210;2023-05-10T02:13:03;101634.65;;;22.81;27.31
80629;BME280;69983;42.370;-71.210;2023-05-10T02:15:29;101638.43;;;23.13;27.08
80629;BME280;69983;42.370;-71.210;2023-05-10T02:17:55;101643.68;;;23.29;27.01
80629;BME280;69983;42.370;-71.210;2023-05-10T02:20:19;101646.37;;;23.45;26.94
80629;BME280;69983;42.370;-71.210;2023-05-10T02:22:48;101643.33;;;23.62;26.86
80629;BME280;69983;42.370;-71.210;2023-05-10T02:25:11;101648.00;;;23.94;26.86
80629;BME280;69983;42.370;-71.210;2023-05-10T02:27:37;101648.82;;;23.28;26.73
80629;BME280;69983;42.370;-71.210;2023-05-10T02:30:02;101646.67;;;22.99;26.93
80629;BME280;69983;42.370;-71.210;2023-05-10T02:32:28;101651.86;;;23.02;27.06
80629;BME280;69983;42.370;-71.210;2023-05-10T02:34:53;101652.50;;;23.29;27.28
80629;BME280;69983;42.370;-71.210;2023-05-10T02:37:19;101654.38;;;23.25;27.28
80629;BME280;69983;42.370;-71.210;2023-05-10T02:39:44;101654.91;;;23.39;27.29
80629;BME280;69983;42.370;-71.210;2023-05-10T02:42:08;101654.54;;;23.39;27.41
80629;BME280;69983;42.370;-71.210;2023-05-10T02:44:34;101654.95;;;23.35;27.50
80629;BME280;69983;42.370;-71.210;2023-05-10T02:46:58;101656.32;;;23.53;27.43
80629;BME280;69983;42.370;-71.210;2023-05-10T02:49:24;101657.59;;;23.51;27.49
80629;BME280;69983;42.370;-71.210;2023-05-10T02:51:54;101663.54;;;23.41;27.46
80629;BME280;69983;42.370;-71.210;2023-05-10T02:54:20;101669.76;;;23.93;27.36
80629;BME280;69983;42.370;-71.210;2023-05-10T02:56:47;101670.76;;;23.93;27.43
80629;BME280;69983;42.370;-71.210;2023-05-10T02:59:05;101672.80;;;23.86;27.55
80629;BME280;69983;42.370;-71.210;2023-05-10T03:01:31;101672.89;;;23.71;27.57
80629;BME280;69983;42.370;-71.210;2023-05-10T03:03:56;101673.81;;;23.88;27.52
80629;BME280;69983;42.370;-71.210;2023-05-10T03:06:21;101673.89;;;23.97;27.70
80629;BME280;69983;42.370;-71.210;2023-05-10T03:08:47;101675.00;;;23.71;27.76
80629;BME280;69983;42.370;-71.210;2023-05-10T03:11:26;101675.07;;;23.67;27.85
80629;BME280;69983;42.370;-71.210;2023-05-10T03:13:44;101677.45;;;23.78;27.99
80629;BME280;69983;42.370;-71.210;2023-05-10T03:16:10;101682.70;;;23.66;27.95
80629;BME280;69983;42.370;-71.210;2023-05-10T03:18:36;101683.83;;;23.84;27.85
80629;BME280;69983;42.370;-71.210;2023-05-10T03:20:57;101687.17;;;24.04;27.72
80629;BME280;69983;42.370;-71.210;2023-05-10T03:23:24;101689.26;;;23.77;27.86
80629;BME280;69983;42.370;-71.210;2023-05-10T03:25:47;101692.64;;;24.25;27.66
80629;BME280;69983;42.370;-71.210;2023-05-10T03:28:10;101694.97;;;23.65;27.99
80629;BME280;69983;42.370;-71.210;2023-05-10T03:30:35;101698.56;;;23.52;28.21
80629;BME280;69983;42.370;-71.210;2023-05-10T03:33:05;101704.24;;;23.90;28.09
80629;BME280;69983;42.370;-71.210;2023-05-10T03:35:26;101710.03;;;23.84;28.39
80629;BME280;69983;42.370;-71.210;2023-05-10T03:37:51;101708.20;;;23.96;28.36
80629;BME280;69983;42.370;-71.210;2023-05-10T03:40:16;101711.16;;;23.66;28.26
80629;BME280;69983;42.370;-71.210;2023-05-10T03:42:41;101713.71;;;23.93;28.24
80629;BME280;69983;42.370;-71.210;2023-05-10T03:45:07;101713.72;;;24.01;28.20
80629;BME280;69983;42.370;-71.210;2023-05-10T03:47:31;101715.18;;;24.01;28.26
80629;BME280;69983;42.370;-71.210;2023-05-10T03:49:57;101715.70;;;23.99;28.13
80629;BME280;69983;42.370;-71.210;2023-05-10T03:52:23;101724.17;;;23.34;28.02
80629;BME280;69983;42.370;-71.210;2023-05-10T03:54:48;101726.47;;;22.97;26.92
80629;BME280;69983;42.370;-71.210;2023-05-10T03:57:14;101725.90;;;23.60;25.64
80629;BME280;69983;42.370;-71.210;2023-05-10T03:59:40;101729.84;;;23.30;25.82
80629;BME280;69983;42.370;-71.210;2023-05-10T04:02:05;101730.73;;;23.60;25.07
80629;BME280;69983;42.370;-71.210;2023-05-10T04:04:30;101734.01;;;24.54;26.21
80629;BME280;69983;42.370;-71.210;2023-05-10T04:06:55;101732.91;;;24.45;26.36
80629;BME280;69983;42.370;-71.210;2023-05-10T04:09:21;101732.42;;;23.58;27.11
80629;BME280;69983;42.370;-71.210;2023-05-10T04:11:46;101732.44;;;23.87;27.12
80629;BME280;69983;42.370;-71.210;2023-05-10T04:14:12;101739.87;;;23.88;26.82
80629;BME280;69983;42.370;-71.210;2023-05-10T04:16:38;101737.48;;;23.95;26.57
80629;BME280;69983;42.370;-71.210;2023-05-10T04:19:04;101735.83;;;23.84;26.87
80629;BME280;69983;42.370;-71.210;2023-05-10T04:21:29;101737.35;;;23.49;26.72
80629;BME280;69983;42.370;-71.210;2023-05-10T04:23:54;101734.47;;;22.91;27.50
80629;BME280;69983;42.370;-71.210;2023-05-10T04:26:20;101733.60;;;23.00;27.39
80629;BME280;69983;42.370;-71.210;2023-05-10T04:28:46;101732.28;;;23.73;26.91
80629;BME280;69983;42.370;-71.210;2023-05-10T04:31:11;101731.62;;;23.36;27.08
80629;BME280;69983;42.370;-71.210;2023-05-10T04:33:37;101734.52;;;23.08;27.37
80629;BME280;69983;42.370;-71.210;2023-05-10T04:36:02;101737.29;;;23.23;27.19
80629;BME280;69983;42.370;-71.210;2023-05-10T04:38:28;101745.57;;;22.95;27.55
80629;BME280;69983;42.370;-71.210;2023-05-10T04:40:53;101742.09;;;23.27;27.18
80629;BME280;69983;42.370;-71.210;2023-05-10T04:43:18;101743.74;;;23.32;27.42
80629;BME280;69983;42.370;-71.210;2023-05-10T04:45:43;101744.39;;;23.48;27.15
80629;BME280;69983;42.370;-71.210;2023-05-10T04:48:09;101742.46;;;23.25;27.44
80629;BME280;69983;42.370;-71.210;2023-05-10T04:50:34;101737.77;;;23.32;27.08
80629;BME280;69983;42.370;-71.210;2023-05-10T04:52:59;101742.99;;;23.07;27.77
80629;BME280;69983;42.370;-71.210;2023-05-10T04:55:25;101739.88;;;21.46;27.79
80629;BME280;69983;42.370;-71.210;2023-05-10T04:57:50;101745.04;;;21.86;27.40
80629;BME280;69983;42.370;-71.210;2023-05-10T05:00:16;101744.85;;;21.93;27.07
80629;BME280;69983;42.370;-71.210;2023-05-10T05:02:43;101745.20;;;21.93;27.18
80629;BME280;69983;42.370;-71.210;2023-05-10T05:05:07;101741.49;;;23.73;27.11
80629;BME280;69983;42.370;-71.210;2023-05-10T05:07:32;101738.72;;;23.70;27.62
80629;BME280;69983;42.370;-71.210;2023-05-10T05:09:57;101736.44;;;22.95;28.14
80629;BME280;69983;42.370;-71.210;2023-05-10T05:12:23;101740.63;;;23.53;28.16
80629;BME280;69983;42.370;-71.210;2023-05-10T05:14:48;101744.59;;;23.35;28.37
80629;BME280;69983;42.370;-71.210;2023-05-10T05:17:14;101745.19;;;22.91;28.60
80629;BME280;69983;42.370;-71.210;2023-05-10T05:19:39;101747.11;;;23.14;28.68
80629;BME280;69983;42.370;-71.210;2023-05-10T05:22:06;101749.56;;;23.11;28.73
80629;BME280;69983;42.370;-71.210;2023-05-10T05:24:34;101745.40;;;22.97;28.90
80629;BME280;69983;42.370;-71.210;2023-05-10T05:26:55;101750.24;;;23.21;28.94
80629;BME280;69983;42.370;-71.210;2023-05-10T05:29:20;101748.13;;;23.00;28.93
80629;BME280;69983;42.370;-71.210;2023-05-10T05:31:46;101751.21;;;22.95;29.00
80629;BME280;69983;42.370;-71.210;2023-05-10T05:34:11;101752.69;;;23.03;28.94
80629;BME280;69983;42.370;-71.210;2023-05-10T05:36:37;101757.09;;;22.78;29.21
80629;BME280;69983;42.370;-71.210;2023-05-10T05:39:03;101757.45;;;22.80;29.19
80629;BME280;69983;42.370;-71.210;2023-05-10T05:41:28;101756.75;;;23.06;29.18
80629;BME280;69983;42.370;-71.210;2023-05-10T05:43:54;101761.54;;;22.93;29.11
80629;BME280;69983;42.370;-71.210;2023-05-10T05:46:19;101756.29;;;23.03;29.05
80629;BME280;69983;42.370;-71.210;2023-05-10T05:48:45;101754.28;;;22.93;29.17
80629;BME280;69983;42.370;-71.210;2023-05-10T05:51:10;101754.28;;;22.87;29.27
80629;BME280;69983;42.370;-71.210;2023-05-10T05:53:36;101752.64;;;23.10;29.11
80629;BME280;69983;42.370;-71.210;2023-05-10T05:56:01;101757.02;;;23.00;29.24
80629;BME280;69983;42.370;-71.210;2023-05-10T05:58:26;101756.59;;;23.00;29.26
80629;BME280;69983;42.370;-71.210;2023-05-10T06:00:52;101758.39;;;22.89;29.48
80629;BME280;69983;42.370;-71.210;2023-05-10T06:03:17;101754.57;;;23.01;29.41
80629;BME280;69983;42.370;-71.210;2023-05-10T06:05:42;101756.86;;;23.06;29.44
80629;BME280;69983;42.370;-71.210;2023-05-10T06:08:07;101757.75;;;23.28;29.50
80629;BME280;69983;42.370;-71.210;2023-05-10T06:10:32;101752.03;;;23.02;29.56
80629;BME280;69983;42.370;-71.210;2023-05-10T06:12:57;101756.29;;;22.89;29.69
80629;BME280;69983;42.370;-71.210;2023-05-10T06:15:23;101753.27;;;22.95;29.66
80629;BME280;69983;42.370;-71.210;2023-05-10T06:17:48;101748.76;;;23.44;29.66
80629;BME280;69983;42.370;-71.210;2023-05-10T06:20:13;101756.56;;;23.16;29.75
80629;BME280;69983;42.370;-71.210;2023-05-10T06:22:38;101760.28;;;22.92;29.81
80629;BME280;69983;42.370;-71.210;2023-05-10T06:25:04;101760.28;;;23.20;29.78
80629;BME280;69983;42.370;-71.210;2023-05-10T06:27:28;101758.32;;;22.94;29.83
80629;BME280;69983;42.370;-71.210;2023-05-10T06:29:54;101759.35;;;23.30;29.74
80629;BME280;69983;42.370;-71.210;2023-05-10T06:32:19;101753.93;;;23.24;29.81
80629;BME280;69983;42.370;-71.210;2023-05-10T06:34:44;101753.94;;;23.14;29.97
80629;BME280;69983;42.370;-71.210;2023-05-10T06:37:09;101754.87;;;22.92;30.08
80629;BME280;69983;42.370;-71.210;2023-05-10T06:39:35;101751.83;;;22.89;30.15
80629;BME280;69983;42.370;-71.210;2023-05-10T06:42:00;101746.95;;;23.39;29.95
80629;BME280;69983;42.370;-71.210;2023-05-10T06:44:25;101747.46;;;23.28;29.48
80629;BME280;69983;42.370;-71.210;2023-05-10T06:46:50;101755.41;;;22.92;29.53
80629;BME280;69983;42.370;-71.210;2023-05-10T06:49:15;101752.25;;;21.99;29.72
80629;BME280;69983;42.370;-71.210;2023-05-10T06:51:40;101757.33;;;22.43;29.77
80629;BME280;69983;42.370;-71.210;2023-05-10T06:54:06;101751.65;;;22.38;29.63
80629;BME280;69983;42.370;-71.210;2023-05-10T06:56:30;101750.26;;;22.60;29.53
80629;BME280;69983;42.370;-71.210;2023-05-10T06:58:56;101751.62;;;22.67;29.58
80629;BME280;69983;42.370;-71.210;2023-05-10T07:01:21;101751.75;;;22.86;29.69
80629;BME280;69983;42.370;-71.210;2023-05-10T07:03:46;101747.07;;;22.60;29.51
80629;BME280;69983;42.370;-71.210;2023-05-10T07:06:11;101747.89;;;22.82;29.52
80629;BME280;69983;42.370;-71.210;2023-05-10T07:08:36;101750.75;;;22.53;29.60
80629;BME280;69983;42.370;-71.210;2023-05-10T07:11:02;101747.60;;;22.92;29.49
80629;BME280;69983;42.370;-71.210;2023-05-10T07:13:26;101751.47;;;22.54;29.62
80629;BME280;69983;42.370;-71.210;2023-05-10T07:15:52;101753.62;;;22.93;29.50
80629;BME280;69983;42.370;-71.210;2023-05-10T07:18:17;101761.62;;;22.76;29.68
80629;BME280;69983;42.370;-71.210;2023-05-10T07:20:42;101765.57;;;22.96;29.50
80629;BME280;69983;42.370;-71.210;2023-05-10T07:23:07;101763.32;;;22.98;29.51
80629;BME280;69983;42.370;-71.210;2023-05-10T07:25:32;101767.55;;;22.64;29.60
80629;BME280;69983;42.370;-71.210;2023-05-10T07:27:57;101768.92;;;22.61;29.67
80629;BME280;69983;42.370;-71.210;2023-05-10T07:30:23;101770.65;;;22.85;29.67
80629;BME280;69983;42.370;-71.210;2023-05-10T07:32:47;101769.32;;;22.80;29.79
80629;BME280;69983;42.370;-71.210;2023-05-10T07:35:13;101767.16;;;22.81;29.62
80629;BME280;69983;42.370;-71.210;2023-05-10T07:37:38;101768.12;;;22.70;29.72
80629;BME280;69983;42.370;-71.210;2023-05-10T07:40:04;101766.46;;;22.86;29.82
80629;BME280;69983;42.370;-71.210;2023-05-10T07:42:28;101766.29;;;22.58;29.90
80629;BME280;69983;42.370;-71.210;2023-05-10T07:44:53;101762.31;;;22.71;29.79
80629;BME280;69983;42.370;-71.210;2023-05-10T07:47:18;101763.79;;;22.79;29.93
80629;BME280;69983;42.370;-71.210;2023-05-10T07:49:43;101767.00;;;23.18;29.80
80629;BME280;69983;42.370;-71.210;2023-05-10T07:52:08;101764.59;;;22.68;29.80
80629;BME280;69983;42.370;-71.210;2023-05-10T07:54:34;101768.10;;;22.91;29.82
80629;BME280;69983;42.370;-71.210;2023-05-10T07:57:00;101761.44;;;23.01;29.73
80629;BME280;69983;42.370;-71.210;2023-05-10T07:59:24;101759.28;;;22.71;29.79
80629;BME280;69983;42.370;-71.210;2023-05-10T08:01:49;101756.19;;;22.71;29.78
80629;BME280;69983;42.370;-71.210;2023-05-10T08:04:14;101756.03;;;22.79;29.78
80629;BME280;69983;42.370;-71.210;2023-05-10T08:06:40;101759.88;;;22.90;29.91
80629;BME280;69983;42.370;-71.210;2023-05-10T08:09:04;101760.54;;;22.64;29.92
80629;BME280;69983;42.370;-71.210;2023-05-10T08:11:29;101765.45;;;23.01;29.81
80629;BME280;69983;42.370;-71.210;2023-05-10T08:13:54;101767.35;;;22.75;29.81
80629;BME280;69983;42.370;-71.210;2023-05-10T08:16:20;101767.95;;;22.78;30.04
80629;BME280;69983;42.370;-71.210;2023-05-10T08:18:46;101761.31;;;22.93;30.08
80629;BME280;69983;42.370;-71.210;2023-05-10T08:21:10;101760.57;;;22.78;30.00
80629;BME280;69983;42.370;-71.210;2023-05-10T08:23:35;101762.31;;;23.01;30.05
80629;BME280;69983;42.370;-71.210;2023-05-10T08:26:00;101761.12;;;22.46;30.11
80629;BME280;69983;42.370;-71.210;2023-05-10T08:28:25;101763.87;;;22.77;30.04
80629;BME280;69983;42.370;-71.210;2023-05-10T08:30:51;101766.23;;;22.47;30.07
80629;BME280;69983;42.370;-71.210;2023-05-10T08:33:17;101766.82;;;22.95;29.83
80629;BME280;69983;42.370;-71.210;2023-05-10T08:35:41;101770.40;;;22.71;30.06
80629;BME280;69983;42.370;-71.210;2023-05-10T08:38:06;101768.42;;;22.94;30.07
80629;BME280;69983;42.370;-71.210;2023-05-10T08:40:31;101772.13;;;22.73;30.04
80629;BME280;69983;42.370;-71.210;2023-05-10T08:43:01;101773.78;;;22.70;30.09
80629;BME280;69983;42.370;-71.210;2023-05-10T08:45:23;101776.33;;;22.65;30.16
80629;BME280;69983;42.370;-71.210;2023-05-10T08:47:47;101778.48;;;22.61;30.19
80629;BME280;69983;42.370;-71.210;2023-05-10T08:50:12;101781.25;;;22.67;30.16
80629;BME280;69983;42.370;-71.210;2023-05-10T08:52:38;101780.02;;;22.87;30.20
80629;BME280;69983;42.370;-71.210;2023-05-10T08:55:02;101780.04;;;22.76;30.07
80629;BME280;69983;42.370;-71.210;2023-05-10T08:57:27;101778.02;;;22.76;30.34
80629;BME280;69983;42.370;-71.210;2023-05-10T08:59:52;101775.52;;;22.42;30.25
80629;BME280;69983;42.370;-71.210;2023-05-10T09:02:18;101779.05;;;22.53;30.19
80629;BME280;69983;42.370;-71.210;2023-05-10T09:04:42;101780.41;;;22.86;30.15
80629;BME280;69983;42.370;-71.210;2023-05-10T09:07:07;101779.84;;;22.71;30.29
80629;BME280;69983;42.370;-71.210;2023-05-10T09:09:33;101782.58;;;22.92;30.17
80629;BME280;69983;42.370;-71.210;2023-05-10T09:11:58;101779.87;;;22.55;30.30
80629;BME280;69983;42.370;-71.210;2023-05-10T09:14:23;101783.01;;;22.81;30.27
80629;BME280;69983;42.370;-71.210;2023-05-10T09:16:48;101784.11;;;22.68;30.39
80629;BME280;69983;42.370;-71.210;2023-05-10T09:19:13;101786.25;;;22.54;30.26
80629;BME280;69983;42.370;-71.210;2023-05-10T09:21:38;101783.93;;;22.67;30.12
80629;BME280;69983;42.370;-71.210;2023-05-10T09:24:05;101785.58;;;22.88;30.13
80629;BME280;69983;42.370;-71.210;2023-05-10T09:26:28;101789.85;;;22.71;30.34
80629;BME280;69983;42.370;-71.210;2023-05-10T09:28:54;101792.31;;;22.56;30.25
80629;BME280;69983;42.370;-71.210;2023-05-10T09:31:19;101793.76;;;22.74;30.28
80629;BME280;69983;42.370;-71.210;2023-05-10T09:33:45;101797.73;;;22.57;30.21
80629;BME280;69983;42.370;-71.210;2023-05-10T09:36:09;101800.45;;;22.59;30.38
80629;BME280;69983;42.370;-71.210;2023-05-10T09:38:45;101801.51;;;22.70;30.28
80629;BME280;69983;42.370;-71.210;2023-05-10T09:41:01;101801.97;;;22.93;30.29
80629;BME280;69983;42.370;-71.210;2023-05-10T09:43:25;101804.34;;;22.72;30.25
80629;BME280;69983;42.370;-71.210;2023-05-10T09:45:50;101809.11;;;22.57;30.41
80629;BME280;69983;42.370;-71.210;2023-05-10T09:48:15;101810.21;;;22.86;30.37
80629;BME280;69983;42.370;-71.210;2023-05-10T09:50:40;101813.41;;;22.83;30.19
80629;BME280;69983;42.370;-71.210;2023-05-10T09:53:05;101813.85;;;22.53;30.23
80629;BME280;69983;42.370;-71.210;2023-05-10T09:55:39;101816.65;;;22.50;30.26
80629;BME280;69983;42.370;-71.210;2023-05-10T09:58:00;101817.59;;;22.75;30.25
80629;BME280;69983;42.370;-71.210;2023-05-10T10:00:20;101821.61;;;22.73;30.30
80629;BME280;69983;42.370;-71.210;2023-05-10T10:02:47;101822.67;;;22.62;30.40
80629;BME280;69983;42.370;-71.210;2023-05-10T10:05:12;101821.96;;;22.57;30.24
80629;BME280;69983;42.370;-71.210;2023-05-10T10:07:36;101823.42;;;22.63;30.39
80629;BME280;69983;42.370;-71.210;2023-05-10T10:10:01;101824.51;;;22.64;30.41
80629;BME280;69983;42.370;-71.210;2023-05-10T10:12:26;101830.09;;;22.46;30.37
80629;BME280;69983;42.370;-71.210;2023-05-10T10:14:51;101831.32;;;22.38;30.73
80629;BME280;69983;42.370;-71.210;2023-05-10T10:17:17;101836.33;;;22.41;30.72
80629;BME280;69983;42.370;-71.210;2023-05-10T10:19:42;101841.69;;;22.68;30.44
80629;BME280;69983;42.370;-71.210;2023-05-10T10:22:06;101843.10;;;22.48;30.43
80629;BME280;69983;42.370;-71.210;2023-05-10T10:24:32;101848.71;;;22.85;30.54
80629;BME280;69983;42.370;-71.210;2023-05-10T10:27:02;101852.57;;;22.46;30.48
80629;BME280;69983;42.370;-71.210;2023-05-10T10:29:25;101854.48;;;22.94;30.49
80629;BME280;69983;42.370;-71.210;2023-05-10T10:31:54;101860.25;;;22.62;30.61
80629;BME280;69983;42.370;-71.210;2023-05-10T10:34:23;101859.20;;;22.80;30.47
80629;BME280;69983;42.370;-71.210;2023-05-10T10:36:42;101857.70;;;22.68;30.59
80629;BME280;69983;42.370;-71.210;2023-05-10T10:39:09;101860.57;;;22.81;30.28
80629;BME280;69983;42.370;-71.210;2023-05-10T10:41:31;101862.59;;;22.87;30.45
80629;BME280;69983;42.370;-71.210;2023-05-10T10:46:18;101862.78;;;22.79;30.63
80629;BME280;69983;42.370;-71.210;2023-05-10T10:48:49;101862.67;;;22.85;30.60
80629;BME280;69983;42.370;-71.210;2023-05-10T10:51:08;101864.56;;;22.73;30.45
80629;BME280;69983;42.370;-71.210;2023-05-10T10:53:33;101868.22;;;23.18;30.29
80629;BME280;69983;42.370;-71.210;2023-05-10T10:56:06;101868.40;;;22.82;30.43
80629;BME280;69983;42.370;-71.210;2023-05-10T10:58:30;101869.69;;;22.68;30.57
80629;BME280;69983;42.370;-71.210;2023-05-10T11:00:50;101867.00;;;22.67;30.63
80629;BME280;69983;42.370;-71.210;2023-05-10T11:03:14;101868.89;;;22.87;30.67
80629;BME280;69983;42.370;-71.210;2023-05-10T11:05:41;101864.83;;;22.86;30.51
80629;BME280;69983;42.370;-71.210;2023-05-10T11:08:10;101866.52;;;22.95;30.65
80629;BME280;69983;42.370;-71.210;2023-05-10T11:10:29;101870.19;;;22.91;30.67
80629;BME280;69983;42.370;-71.210;2023-05-10T11:13:00;101875.98;;;22.59;30.52
80629;BME280;69983;42.370;-71.210;2023-05-10T11:15:20;101880.71;;;22.90;30.43
80629;BME280;69983;42.370;-71.210;2023-05-10T11:17:44;101885.62;;;22.99;30.54
80629;BME280;69983;42.370;-71.210;2023-05-10T11:20:13;101888.92;;;23.10;30.43
80629;BME280;69983;42.370;-71.210;2023-05-10T11:22:49;101886.45;;;23.18;30.30
80629;BME280;69983;42.370;-71.210;2023-05-10T11:25:00;101890.17;;;23.06;30.42
80629;BME280;69983;42.370;-71.210;2023-05-10T11:27:25;101890.05;;;22.97;30.25
80629;BME280;69983;42.370;-71.210;2023-05-10T11:29:52;101891.78;;;23.06;30.17
80629;BME280;69983;42.370;-71.210;2023-05-10T11:32:15;101890.70;;;23.07;30.14
80629;BME280;69983;42.370;-71.210;2023-05-10T11:34:40;101892.80;;;23.16;30.06
80629;BME280;69983;42.370;-71.210;2023-05-10T11:37:05;101896.64;;;23.10;30.13
80629;BME280;69983;42.370;-71.210;2023-05-10T11:39:32;101893.88;;;22.96;30.23
80629;BME280;69983;42.370;-71.210;2023-05-10T11:41:56;101892.40;;;23.26;30.17
80629;BME280;69983;42.370;-71.210;2023-05-10T11:44:21;101889.14;;;22.82;30.33
80629;BME280;69983;42.370;-71.210;2023-05-10T11:46:46;101888.07;;;23.10;30.00
80629;BME280;69983;42.370;-71.210;2023-05-10T11:49:11;101885.07;;;22.79;30.27
80629;BME280;69983;42.370;-71.210;2023-05-10T11:51:37;101884.76;;;23.07;30.04
80629;BME280;69983;42.370;-71.210;2023-05-10T11:54:05;101883.99;;;22.75;30.29
80629;BME280;69983;42.370;-71.210;2023-05-10T11:56:27;101884.29;;;22.97;30.12
80629;BME280;69983;42.370;-71.210;2023-05-10T11:58:54;101886.82;;;22.80;30.28
80629;BME280;69983;42.370;-71.210;2023-05-10T12:01:17;101884.67;;;23.04;30.28
80629;BME280;69983;42.370;-71.210;2023-05-10T12:03:42;101883.43;;;22.89;30.21
80629;BME280;69983;42.370;-71.210;2023-05-10T12:06:07;101885.79;;;22.85;30.30
80629;BME280;69983;42.370;-71.210;2023-05-10T12:08:32;101886.12;;;22.81;30.38
80629;BME280;69983;42.370;-71.210;2023-05-10T12:11:06;101887.97;;;23.01;30.40
80629;BME280;69983;42.370;-71.210;2023-05-10T12:13:22;101887.95;;;23.06;30.16
80629;BME280;69983;42.370;-71.210;2023-05-10T12:15:47;101892.92;;;22.86;30.33
80629;BME280;69983;42.370;-71.210;2023-05-10T12:18:13;101893.01;;;23.07;30.12
80629;BME280;69983;42.370;-71.210;2023-05-10T12:20:38;101895.02;;;22.96;30.22
80629;BME280;69983;42.370;-71.210;2023-05-10T12:23:03;101892.15;;;23.06;30.14
80629;BME280;69983;42.370;-71.210;2023-05-10T12:25:31;101890.66;;;22.71;30.43